Airfield :
LOGIN :

Register | Disclaimer

   EN    FR    IT 

 










Legend :    VFR   Marginal VFR   IFR   Intensive IFR   Very Intensive IFR
Visi :
Ceiling :
>= 8 km
>= 3000ft
5 to 8 km
1000 to 3000 ft
1500m to 5 km
500 to 1000 ft
800 to 1500m
200 to 500 ft
< 800m
< 200 ft
Symbols :   Thunderstorms  Fog  Heavy snow  Heavy precipitations  Wind > 20 kt
SIGMETs :     Misc.  Thunderstorms  Icing  Turbulence  Mountain Waves  Volcanic Ashes






- Airport Elevation : 245 ft
- IATA code : BIQ


LFBZ - Biarritz

CURRENT METAR :
  • 172000Z AUTO 27010KT 9999 BKN058 BKN076 20/16 Q1015 NOSIG

EXPIRED METARs :
  • 171930Z AUTO 27008KT 240V300 9999 OVC050 21/18 Q1015 NOSIG
  • 171900Z AUTO 26004KT 9999 BKN048 20/18 Q1014 NOSIG
  • 171830Z AUTO 29005KT 9999 FEW047 SCT074 20/18 Q1014 NOSIG
  • 171800Z AUTO 30004KT CAVOK 21/16 Q1013 NOSIG
  • 171730Z AUTO 31004KT CAVOK 23/15 Q1013 NOSIG
  • 171700Z AUTO 31004KT CAVOK 24/15 Q1013 NOSIG

TAF AMD TAF LFBZ
Valid from the 17 at 19:00 until the 18 at 18:00 UTC


171950Z 1719/1818 26010KT 9999 BKN050
BECMG 1721/1723 BKN020
BECMG 1723/1801 4000 RA
TEMPO 1723/1812 BKN005 OVC015
PROB30
TEMPO 1801/1812 27015G30KT 3000 TSRA BKN005 BKN015CB
BECMG 1812/1814 9999 NSW SCT020
PROB40
TEMPO 1812/1818 27015G25KT 3000 SHRA SCT015CB BKN020TCU



MET'MAP, your aeronautical weather chart ! - Copyright ORBIFLY December 2007 - Disclaimer

ORBIFLY MET'MAP TEAM :

Programming & Development : Alexandra Zaïnal
Concept & original design : Baudouin d'Aumeries
Assistance for programming : Marc-Olivier Méhu
Technical & hardware support : Manuel Goepfert

Contact : metmap@orbifly.com




SOURCES & CREDITS :

   NOAA